createdAt,value
2023-04-25T00:00:09.990Z,90.80
2023-04-25T00:02:37.330Z,90.70
2023-04-25T00:05:06.218Z,90.70
2023-04-25T00:07:34.852Z,90.60
2023-04-25T00:10:02.033Z,90.60
2023-04-25T00:12:29.797Z,90.70
2023-04-25T00:14:57.938Z,90.60
2023-04-25T00:17:28.358Z,90.70
2023-04-25T00:19:55.654Z,90.60
2023-04-25T00:22:22.713Z,90.50
2023-04-25T00:24:49.646Z,90.60
2023-04-25T00:27:16.559Z,90.90
2023-04-25T00:29:43.439Z,90.90
2023-04-25T00:32:10.891Z,90.80
2023-04-25T00:34:37.740Z,90.90
2023-04-25T00:37:04.671Z,90.80
2023-04-25T00:39:31.554Z,90.60
2023-04-25T00:41:59.518Z,90.50
2023-04-25T00:44:28.617Z,90.40
2023-04-25T00:46:55.620Z,90.30
2023-04-25T00:49:22.628Z,90.40
2023-04-25T00:51:49.616Z,90.40
2023-04-25T00:54:17.423Z,90.80
2023-04-25T00:56:46.256Z,90.80
2023-04-25T00:59:13.976Z,90.70
2023-04-25T01:01:42.782Z,90.80
2023-04-25T01:04:09.844Z,91.00
2023-04-25T01:06:36.916Z,91.00
2023-04-25T01:09:05.721Z,91.30
2023-04-25T01:11:32.708Z,91.50
2023-04-25T01:13:59.954Z,91.70
2023-04-25T01:16:27.235Z,92.10
2023-04-25T01:18:54.305Z,92.30
2023-04-25T01:21:21.802Z,92.30
2023-04-25T01:23:49.330Z,92.40
2023-04-25T01:26:17.159Z,92.50
2023-04-25T01:28:44.301Z,92.60
2023-04-25T01:31:12.967Z,92.80
2023-04-25T01:33:40.093Z,92.70
2023-04-25T01:36:07.436Z,92.80
2023-04-25T01:38:34.741Z,92.90
2023-04-25T01:41:01.815Z,93.00
2023-04-25T01:43:29.453Z,93.20
2023-04-25T01:45:58.082Z,93.20
2023-04-25T01:48:25.067Z,93.30
2023-04-25T01:50:52.124Z,93.80
2023-04-25T01:53:19.025Z,94.40
2023-04-25T01:55:45.901Z,95.00
2023-04-25T01:58:14.015Z,95.30
2023-04-25T02:00:41.883Z,95.70
2023-04-25T02:03:09.844Z,95.80
2023-04-25T02:05:40.572Z,95.90
2023-04-25T02:08:10.871Z,96.20
2023-04-25T02:10:37.967Z,96.50
2023-04-25T02:13:06.255Z,96.50
2023-04-25T02:15:33.418Z,96.90
2023-04-25T02:18:01.388Z,97.80
2023-04-25T02:20:30.039Z,98.00
2023-04-25T02:22:57.028Z,98.30
2023-04-25T02:25:24.118Z,98.70
2023-04-25T02:27:52.355Z,98.60
2023-04-25T02:30:19.207Z,98.90
2023-04-25T02:32:46.201Z,99.60
2023-04-25T02:35:13.164Z,99.90
2023-04-25T02:37:40.782Z,99.90
2023-04-25T02:40:09.080Z,99.90
2023-04-25T02:42:36.185Z,99.90
2023-04-25T02:45:03.663Z,99.90
2023-04-25T02:47:30.977Z,99.90
2023-04-25T02:49:57.961Z,99.90
2023-04-25T02:52:24.857Z,99.90
2023-04-25T02:54:51.870Z,99.90
2023-04-25T02:57:18.923Z,99.90
2023-04-25T02:59:45.847Z,99.90
2023-04-25T03:02:12.802Z,99.90
2023-04-25T03:04:39.733Z,99.90
2023-04-25T03:07:06.652Z,99.90
2023-04-25T03:09:33.682Z,99.90
2023-04-25T03:12:01.701Z,99.90
2023-04-25T03:14:28.593Z,99.90
2023-04-25T03:16:55.606Z,99.90
2023-04-25T03:19:22.616Z,99.90
2023-04-25T03:21:49.786Z,99.90
2023-04-25T03:24:16.721Z,99.90
2023-04-25T03:26:43.600Z,99.90
2023-04-25T03:29:10.572Z,99.90
2023-04-25T03:31:37.439Z,99.90
2023-04-25T03:34:04.352Z,99.90
2023-04-25T03:36:31.607Z,99.90
2023-04-25T03:38:58.490Z,99.90
2023-04-25T03:41:26.032Z,99.90
2023-04-25T03:43:53.013Z,99.90
2023-04-25T03:46:20.106Z,99.90
2023-04-25T03:48:47.067Z,99.90
2023-04-25T03:51:14.219Z,99.40
2023-04-25T03:53:41.095Z,98.00
2023-04-25T03:56:08.086Z,95.80
2023-04-25T03:58:35.012Z,94.20
2023-04-25T04:01:04.140Z,93.00
2023-04-25T04:03:31.438Z,91.90
2023-04-25T04:05:58.810Z,91.70
2023-04-25T04:08:25.874Z,90.90
2023-04-25T04:10:52.783Z,89.20
2023-04-25T04:13:19.618Z,87.70
2023-04-25T04:15:46.516Z,87.00
2023-04-25T04:18:13.395Z,85.70
2023-04-25T04:20:40.350Z,84.80
2023-04-25T04:23:07.290Z,84.60
2023-04-25T04:25:35.396Z,82.80
2023-04-25T04:28:02.460Z,82.40
2023-04-25T04:30:30.578Z,81.60
2023-04-25T04:32:57.650Z,80.10
2023-04-25T04:35:25.830Z,78.40
2023-04-25T04:37:52.765Z,77.70
2023-04-25T04:40:19.849Z,76.60
2023-04-25T04:42:46.813Z,76.70
2023-04-25T04:45:14.026Z,75.70
2023-04-25T04:47:41.645Z,75.60
2023-04-25T04:50:10.384Z,74.90
2023-04-25T04:52:38.311Z,75.70
2023-04-25T04:55:06.549Z,74.00
2023-04-25T04:57:34.112Z,73.50
2023-04-25T05:00:01.586Z,73.70
2023-04-25T05:06:55.140Z,71.80
2023-04-25T05:13:29.766Z,71.10
2023-04-25T05:15:57.968Z,70.60
2023-04-25T05:18:26.420Z,71.20
2023-04-25T05:20:55.275Z,71.00
2023-04-25T05:23:25.692Z,70.30
2023-04-25T05:25:52.519Z,70.60
2023-04-25T05:28:19.306Z,69.90
2023-04-25T05:30:46.096Z,68.80
2023-04-25T05:33:12.999Z,68.60
2023-04-25T05:35:39.957Z,68.50
2023-04-25T05:38:06.787Z,67.50
2023-04-25T05:40:33.704Z,67.30
2023-04-25T05:43:00.508Z,68.10
2023-04-25T05:45:27.310Z,66.30
2023-04-25T05:47:54.239Z,66.40
2023-04-25T05:50:21.181Z,65.60
2023-04-25T05:52:48.037Z,65.00
2023-04-25T05:55:15.069Z,64.90
2023-04-25T05:57:43.419Z,64.60
2023-04-25T06:00:11.220Z,64.40
2023-04-25T06:02:38.217Z,63.90
2023-04-25T06:05:05.755Z,63.00
2023-04-25T06:07:32.772Z,62.80
2023-04-25T06:10:01.051Z,62.50
2023-04-25T06:12:28.133Z,62.30
2023-04-25T06:14:55.387Z,60.90
2023-04-25T06:17:22.404Z,60.00
2023-04-25T06:19:49.186Z,59.60
2023-04-25T06:22:16.013Z,60.00
2023-04-25T06:24:42.803Z,59.50
2023-04-25T06:27:09.662Z,58.90
2023-04-25T06:29:36.539Z,58.90
2023-04-25T06:32:03.318Z,58.70
2023-04-25T06:34:30.167Z,59.20
2023-04-25T06:36:56.964Z,59.20
2023-04-25T06:39:26.532Z,59.00
2023-04-25T06:41:54.399Z,58.70
2023-04-25T06:44:22.231Z,57.60
2023-04-25T06:46:49.048Z,57.30
2023-04-25T06:49:16.421Z,57.70
2023-04-25T06:51:43.237Z,58.10
2023-04-25T06:54:10.070Z,58.00
2023-04-25T06:56:37.060Z,57.80
2023-04-25T06:59:03.851Z,56.90
2023-04-25T07:01:31.053Z,56.90
2023-04-25T07:03:58.068Z,56.50
2023-04-25T07:06:26.927Z,56.60
2023-04-25T07:08:53.924Z,56.70
2023-04-25T07:11:20.926Z,56.10
2023-04-25T07:13:47.821Z,57.20
2023-04-25T07:16:14.589Z,56.60
2023-04-25T07:18:41.477Z,56.40
2023-04-25T07:21:08.426Z,56.50
2023-04-25T07:23:35.264Z,56.20
2023-04-25T07:26:02.402Z,56.30
2023-04-25T07:28:29.285Z,56.90
2023-04-25T07:30:56.060Z,56.20
2023-04-25T07:33:22.922Z,57.90
2023-04-25T07:35:49.767Z,58.80
2023-04-25T07:38:16.686Z,59.60
2023-04-25T07:40:43.506Z,59.60
2023-04-25T07:43:10.375Z,59.90
2023-04-25T07:45:37.368Z,60.20
2023-04-25T07:48:04.566Z,59.90
2023-04-25T07:50:31.738Z,60.30
2023-04-25T07:52:58.557Z,61.40
2023-04-25T07:55:25.410Z,60.40
2023-04-25T07:57:52.219Z,59.80
2023-04-25T08:00:19.607Z,60.10
2023-04-25T08:02:46.826Z,59.80
2023-04-25T08:05:15.916Z,60.20
2023-04-25T08:07:44.553Z,60.80
2023-04-25T08:10:11.546Z,60.30
2023-04-25T08:12:38.325Z,60.20
2023-04-25T08:15:06.483Z,59.60
2023-04-25T08:17:33.349Z,59.00
2023-04-25T08:20:00.225Z,60.30
2023-04-25T08:22:27.083Z,60.60
2023-04-25T08:24:53.936Z,59.90
2023-04-25T08:27:22.599Z,59.60
2023-04-25T08:29:49.406Z,59.80
2023-04-25T08:32:16.213Z,60.20
2023-04-25T08:34:44.886Z,60.60
2023-04-25T08:37:11.808Z,60.40
2023-04-25T08:39:39.232Z,59.90
2023-04-25T08:42:11.208Z,59.80
2023-04-25T08:44:38.502Z,60.60
2023-04-25T08:47:06.708Z,62.10
2023-04-25T08:49:34.982Z,61.70
2023-04-25T08:52:03.487Z,61.80
2023-04-25T08:54:35.014Z,61.80
2023-04-25T08:57:03.501Z,62.30
2023-04-25T08:59:31.838Z,63.30
2023-04-25T09:01:59.179Z,64.00
2023-04-25T09:04:26.384Z,64.00
2023-04-25T09:06:53.228Z,63.40
2023-04-25T09:09:20.153Z,63.70
2023-04-25T09:11:47.011Z,65.00
2023-04-25T09:14:15.832Z,65.30
2023-04-25T09:16:57.642Z,65.20
2023-04-25T09:19:38.834Z,65.30
2023-04-25T09:22:08.760Z,65.00
2023-04-25T09:24:46.865Z,65.00
2023-04-25T09:27:19.839Z,64.30
2023-04-25T09:29:47.430Z,65.10
2023-04-25T09:32:19.649Z,65.00
2023-04-25T09:34:57.166Z,64.00
2023-04-25T09:37:28.977Z,62.90
2023-04-25T09:40:00.148Z,62.70
2023-04-25T09:42:29.819Z,63.40
2023-04-25T09:44:57.767Z,64.60
2023-04-25T09:47:27.813Z,64.00
2023-04-25T09:49:56.030Z,63.30
2023-04-25T09:52:26.033Z,63.60
2023-04-25T09:54:53.720Z,62.50
2023-04-25T09:57:26.998Z,62.80
2023-04-25T09:59:55.875Z,62.90
2023-04-25T10:02:27.813Z,63.00
2023-04-25T10:04:56.731Z,63.70
2023-04-25T10:07:27.211Z,63.40
2023-04-25T10:10:03.870Z,63.30
2023-04-25T10:12:34.576Z,62.30
2023-04-25T10:15:02.553Z,62.30
2023-04-25T10:17:29.589Z,61.90
2023-04-25T10:19:57.351Z,62.00
2023-04-25T10:22:45.918Z,61.00
2023-04-25T10:25:13.921Z,60.90
2023-04-25T10:27:41.321Z,60.10
2023-04-25T10:30:17.867Z,60.60
2023-04-25T10:32:46.186Z,61.00
2023-04-25T10:35:17.286Z,61.30
2023-04-25T10:38:07.288Z,61.30
2023-04-25T10:40:34.783Z,61.40
2023-04-25T10:46:24.894Z,61.30
2023-04-25T10:49:02.615Z,60.90
2023-04-25T10:51:40.009Z,61.00
2023-04-25T10:54:19.195Z,60.90
2023-04-25T10:56:46.005Z,60.70
2023-04-25T10:59:17.153Z,61.00
2023-04-25T11:01:49.145Z,61.20
2023-04-25T11:04:23.586Z,61.40
2023-04-25T11:07:08.608Z,61.60
2023-04-25T11:09:37.136Z,62.00
2023-04-25T11:12:04.164Z,62.40
2023-04-25T11:14:31.057Z,62.10
2023-04-25T11:17:00.351Z,61.90
2023-04-25T11:19:28.853Z,61.80
2023-04-25T11:22:03.615Z,61.20
2023-04-25T11:24:37.836Z,61.00
2023-04-25T11:27:07.008Z,61.10
2023-04-25T11:29:35.176Z,62.20
2023-04-25T11:32:03.425Z,62.60
2023-04-25T11:34:34.384Z,62.10
2023-04-25T11:37:03.127Z,62.00
2023-04-25T11:39:30.950Z,61.70
2023-04-25T11:41:58.007Z,61.70
2023-04-25T11:44:26.480Z,62.10
2023-04-25T11:46:53.264Z,62.00
2023-04-25T11:49:20.078Z,61.40
2023-04-25T11:51:49.187Z,61.30
2023-04-25T11:54:17.074Z,61.50
2023-04-25T11:56:46.770Z,60.90
2023-04-25T11:59:14.324Z,60.30
2023-04-25T12:01:48.788Z,60.30
2023-04-25T12:04:19.840Z,60.10
2023-04-25T12:06:49.743Z,60.80
2023-04-25T12:09:19.562Z,61.50
2023-04-25T12:11:53.525Z,62.60
2023-04-25T12:14:29.202Z,62.70
2023-04-25T12:16:58.310Z,63.30
2023-04-25T12:19:25.803Z,63.40
2023-04-25T12:21:58.768Z,62.80
2023-04-25T12:24:28.441Z,63.20
2023-04-25T12:27:05.547Z,63.10
2023-04-25T12:29:48.641Z,63.10
2023-04-25T12:32:16.917Z,63.60
2023-04-25T12:34:43.758Z,64.00
2023-04-25T12:37:11.321Z,63.90
2023-04-25T12:39:38.437Z,63.10
2023-04-25T12:42:07.579Z,63.30
2023-04-25T12:44:36.652Z,62.80
2023-04-25T12:47:04.332Z,62.10
2023-04-25T12:49:31.540Z,62.30
2023-04-25T12:51:58.851Z,62.00
2023-04-25T12:54:26.616Z,61.90
2023-04-25T12:56:53.769Z,62.30
2023-04-25T12:59:21.539Z,62.90
2023-04-25T13:01:48.607Z,63.20
2023-04-25T13:04:16.147Z,63.00
2023-04-25T13:06:43.663Z,62.40
2023-04-25T13:09:10.776Z,62.10
2023-04-25T13:11:37.747Z,61.40
2023-04-25T13:14:04.741Z,61.00
2023-04-25T13:16:31.607Z,60.10
2023-04-25T13:18:58.897Z,59.10
2023-04-25T13:21:26.491Z,59.00
2023-04-25T13:23:53.579Z,58.80
2023-04-25T13:26:21.096Z,58.90
2023-04-25T13:28:48.201Z,59.30
2023-04-25T13:31:15.078Z,58.90
2023-04-25T13:33:41.838Z,58.60
2023-04-25T13:36:08.812Z,58.40
2023-04-25T13:38:35.686Z,58.00
2023-04-25T13:41:02.473Z,57.90
2023-04-25T13:43:29.384Z,57.90
2023-04-25T13:45:56.281Z,57.40
2023-04-25T13:48:25.644Z,58.20
2023-04-25T13:50:52.430Z,58.40
2023-04-25T13:53:19.333Z,59.10
2023-04-25T13:55:46.720Z,59.70
2023-04-25T13:58:13.525Z,59.80
2023-04-25T14:00:41.484Z,58.70
2023-04-25T14:03:09.388Z,58.20
2023-04-25T14:05:41.193Z,58.30
2023-04-25T14:08:09.430Z,59.00
2023-04-25T14:10:36.767Z,59.60
2023-04-25T14:13:04.686Z,59.00
2023-04-25T14:15:33.216Z,58.60
2023-04-25T14:18:02.131Z,58.30
2023-04-25T14:20:29.669Z,58.30
2023-04-25T14:22:58.139Z,58.40
2023-04-25T14:25:25.572Z,58.70
2023-04-25T14:27:52.786Z,58.20
2023-04-25T14:30:20.874Z,58.90
2023-04-25T14:32:49.608Z,58.20
2023-04-25T14:35:16.831Z,58.70
2023-04-25T14:37:43.673Z,58.70
2023-04-25T14:40:11.857Z,58.70
2023-04-25T14:42:38.870Z,58.90
2023-04-25T14:45:08.331Z,58.60
2023-04-25T14:47:38.974Z,59.30
2023-04-25T14:50:07.238Z,59.00
2023-04-25T14:52:34.172Z,59.40
2023-04-25T14:55:06.168Z,59.60
2023-04-25T14:57:34.342Z,59.30
2023-04-25T15:00:02.176Z,59.50
2023-04-25T15:02:29.505Z,59.10
2023-04-25T15:04:56.992Z,59.70
2023-04-25T15:07:24.294Z,59.90
2023-04-25T15:09:51.159Z,59.70
2023-04-25T15:12:18.049Z,59.50
2023-04-25T15:14:44.961Z,58.90
2023-04-25T15:17:14.529Z,58.60
2023-04-25T15:19:41.394Z,59.00
2023-04-25T15:22:08.279Z,60.00
2023-04-25T15:24:35.669Z,58.70
2023-04-25T15:27:02.548Z,58.90
2023-04-25T15:29:29.878Z,59.20
2023-04-25T15:31:56.850Z,59.60
2023-04-25T15:34:23.723Z,60.00
2023-04-25T15:36:50.619Z,59.90
2023-04-25T15:39:17.727Z,60.20
2023-04-25T15:41:44.519Z,60.40
2023-04-25T15:44:11.706Z,60.40
2023-04-25T15:46:39.280Z,60.60
2023-04-25T15:49:06.299Z,60.20
2023-04-25T15:51:33.783Z,60.00
2023-04-25T15:54:02.662Z,60.00
2023-04-25T15:56:29.704Z,59.60
2023-04-25T15:58:56.535Z,59.00
2023-04-25T16:01:24.745Z,58.70
2023-04-25T16:03:53.178Z,58.40
2023-04-25T16:06:20.403Z,58.40
2023-04-25T16:08:47.448Z,58.70
2023-04-25T16:11:14.862Z,58.90
2023-04-25T16:13:41.768Z,59.30
2023-04-25T16:16:08.919Z,59.50
2023-04-25T16:18:35.913Z,59.90
2023-04-25T16:21:03.619Z,59.90
2023-04-25T16:23:31.388Z,59.90
2023-04-25T16:25:58.245Z,60.10
2023-04-25T16:28:25.383Z,60.00
2023-04-25T16:30:52.233Z,59.90
2023-04-25T16:33:19.062Z,60.00
2023-04-25T16:35:46.047Z,60.40
2023-04-25T16:38:12.831Z,60.20
2023-04-25T16:40:39.672Z,60.00
2023-04-25T16:43:06.689Z,60.00
2023-04-25T16:45:33.545Z,59.90
2023-04-25T16:48:00.429Z,59.90
2023-04-25T16:50:27.396Z,60.00
2023-04-25T16:52:54.684Z,60.30
2023-04-25T16:55:21.634Z,60.20
2023-04-25T16:57:48.605Z,60.00
2023-04-25T17:00:16.068Z,59.70
2023-04-25T17:02:43.097Z,60.20
2023-04-25T17:05:10.683Z,60.50
2023-04-25T17:07:37.646Z,60.80
2023-04-25T17:10:04.909Z,61.00
2023-04-25T17:12:32.069Z,60.90
2023-04-25T17:15:00.347Z,60.70
2023-04-25T17:17:27.793Z,60.70
2023-04-25T17:19:54.769Z,61.20
2023-04-25T17:22:22.364Z,61.00
2023-04-25T17:24:49.391Z,61.00
2023-04-25T17:27:16.308Z,61.10
2023-04-25T17:29:43.118Z,61.20
2023-04-25T17:32:10.837Z,61.10
2023-04-25T17:34:39.982Z,61.40
2023-04-25T17:37:08.041Z,61.60
2023-04-25T17:39:34.927Z,61.40
2023-04-25T17:42:02.375Z,61.40
2023-04-25T17:44:29.245Z,61.50
2023-04-25T17:46:56.063Z,61.60
2023-04-25T17:49:22.836Z,61.50
2023-04-25T17:51:49.706Z,61.70
2023-04-25T17:54:16.650Z,61.50
2023-04-25T17:56:44.766Z,61.80
2023-04-25T17:59:11.811Z,62.00
2023-04-25T18:01:39.058Z,62.00
2023-04-25T18:04:06.118Z,62.00
2023-04-25T18:06:33.598Z,62.30
2023-04-25T18:09:02.073Z,62.50
2023-04-25T18:11:29.914Z,62.60
2023-04-25T18:13:56.695Z,62.60
2023-04-25T18:16:23.607Z,62.50
2023-04-25T18:18:54.061Z,62.80
2023-04-25T18:21:21.579Z,62.90
2023-04-25T18:23:48.451Z,63.10
2023-04-25T18:26:16.050Z,62.80
2023-04-25T18:28:43.036Z,63.00
2023-04-25T18:31:10.035Z,63.00
2023-04-25T18:33:37.029Z,63.10
2023-04-25T18:36:04.034Z,62.90
2023-04-25T18:41:13.068Z,63.20
2023-04-25T18:43:47.488Z,63.10
2023-04-25T18:46:14.380Z,63.20
2023-04-25T18:48:41.277Z,63.40
2023-04-25T18:51:08.126Z,63.70
2023-04-25T18:53:35.249Z,64.00
2023-04-25T18:56:02.202Z,64.20
2023-04-25T18:58:29.477Z,64.30
2023-04-25T19:00:56.474Z,64.20
2023-04-25T19:03:23.430Z,64.60
2023-04-25T19:05:50.745Z,65.00
2023-04-25T19:08:17.895Z,65.00
2023-04-25T19:10:45.266Z,65.60
2023-04-25T19:13:12.921Z,65.60
2023-04-25T19:15:39.897Z,65.60
2023-04-25T19:18:06.911Z,66.10
2023-04-25T19:20:34.020Z,66.30
2023-04-25T19:23:01.023Z,66.60
2023-04-25T19:25:28.049Z,66.90
2023-04-25T19:27:54.906Z,67.20
2023-04-25T19:30:21.818Z,67.30
2023-04-25T19:32:49.195Z,67.30
2023-04-25T19:35:15.992Z,67.40
2023-04-25T19:37:46.800Z,67.40
2023-04-25T19:40:15.836Z,67.70
2023-04-25T19:42:44.721Z,67.70
2023-04-25T19:45:12.205Z,67.90
2023-04-25T19:47:39.360Z,68.00
2023-04-25T19:50:08.511Z,68.30
2023-04-25T19:52:36.649Z,68.60
2023-04-25T19:55:04.984Z,68.50
2023-04-25T19:57:37.832Z,68.70
2023-04-25T20:00:11.949Z,68.90
2023-04-25T20:02:39.261Z,69.20
2023-04-25T20:05:07.845Z,69.20
2023-04-25T20:07:35.329Z,69.50
2023-04-25T20:10:02.589Z,70.00
2023-04-25T20:12:29.599Z,70.00
2023-04-25T20:14:56.678Z,70.70
2023-04-25T20:17:23.633Z,71.00
2023-04-25T20:19:50.558Z,71.00
2023-04-25T20:22:17.468Z,71.10
2023-04-25T20:24:44.439Z,71.30
2023-04-25T20:27:11.252Z,72.20
2023-04-25T20:29:38.047Z,72.50
2023-04-25T20:32:05.346Z,72.70
2023-04-25T20:34:32.202Z,73.00
2023-04-25T20:36:59.309Z,73.40
2023-04-25T20:39:26.941Z,73.60
2023-04-25T20:41:54.691Z,74.00
2023-04-25T20:44:23.503Z,74.20
2023-04-25T20:46:51.697Z,74.40
2023-04-25T20:49:18.477Z,74.80
2023-04-25T20:51:45.839Z,75.20
2023-04-25T20:54:13.463Z,75.60
2023-04-25T20:56:40.367Z,75.90
2023-04-25T20:59:07.238Z,76.40
2023-04-25T21:01:34.631Z,76.80
2023-04-25T21:04:01.911Z,77.30
2023-04-25T21:06:29.528Z,77.50
2023-04-25T21:08:56.448Z,77.60
2023-04-25T21:11:23.586Z,78.30
2023-04-25T21:13:50.849Z,78.30
2023-04-25T21:16:17.735Z,78.80
2023-04-25T21:18:44.572Z,78.90
2023-04-25T21:21:11.604Z,79.20
2023-04-25T21:23:38.395Z,79.80
2023-04-25T21:26:06.023Z,80.00
2023-04-25T21:28:32.983Z,80.30
2023-04-25T21:31:00.009Z,80.70
2023-04-25T21:33:26.899Z,80.90
2023-04-25T21:35:53.691Z,81.50
2023-04-25T21:38:20.520Z,81.60
2023-04-25T21:40:47.404Z,82.10
2023-04-25T21:43:14.278Z,82.70
2023-04-25T21:45:53.785Z,83.00
2023-04-25T21:48:28.322Z,83.40
2023-04-25T21:50:56.142Z,84.20
2023-04-25T21:53:23.104Z,84.70
2023-04-25T21:55:49.923Z,85.10
2023-04-25T21:58:16.696Z,85.00
2023-04-25T22:00:44.420Z,85.60
2023-04-25T22:03:11.438Z,86.20
2023-04-25T22:05:38.350Z,86.50
2023-04-25T22:08:05.212Z,86.80
2023-04-25T22:10:32.062Z,87.60
2023-04-25T22:12:58.888Z,87.80
2023-04-25T22:15:26.350Z,88.10
2023-04-25T22:17:56.305Z,88.40
2023-04-25T22:20:26.692Z,88.80
2023-04-25T22:22:55.478Z,89.10
2023-04-25T22:25:22.338Z,89.10
2023-04-25T22:27:49.373Z,89.70
2023-04-25T22:30:16.330Z,90.00
2023-04-25T22:32:43.912Z,90.20
2023-04-25T22:35:11.707Z,90.40
2023-04-25T22:37:39.218Z,90.60
2023-04-25T22:40:09.459Z,90.80
2023-04-25T22:42:40.708Z,91.00
2023-04-25T22:45:08.445Z,91.20
2023-04-25T22:47:39.155Z,91.50
2023-04-25T22:50:12.616Z,91.60
2023-04-25T22:52:39.700Z,91.70
2023-04-25T22:55:07.176Z,91.70
2023-04-25T22:57:36.876Z,92.10
2023-04-25T23:00:09.450Z,92.40
2023-04-25T23:02:36.388Z,92.80
2023-04-25T23:05:04.708Z,93.30
2023-04-25T23:07:32.015Z,93.50
2023-04-25T23:09:59.035Z,93.30
2023-04-25T23:12:25.878Z,93.80
2023-04-25T23:14:52.751Z,93.90
2023-04-25T23:17:20.539Z,94.30
2023-04-25T23:19:48.340Z,94.50
2023-04-25T23:22:15.269Z,94.90
2023-04-25T23:24:42.127Z,95.10
2023-04-25T23:27:08.894Z,95.20
2023-04-25T23:29:36.099Z,95.40
2023-04-25T23:32:02.945Z,95.50
2023-04-25T23:34:33.821Z,95.60
2023-04-25T23:37:01.646Z,95.90
2023-04-25T23:39:28.757Z,96.10
2023-04-25T23:41:55.863Z,96.30
2023-04-25T23:44:22.769Z,96.20
2023-04-25T23:46:50.335Z,96.40
2023-04-25T23:49:17.187Z,96.60
2023-04-25T23:51:43.950Z,96.70
2023-04-25T23:54:11.180Z,96.80
2023-04-25T23:56:38.021Z,97.10
2023-04-25T23:59:04.942Z,97.10
